Time;durP1;ratioP1;P1;durP2;ratioP2;P2;SDS_P1;SDS_P2;PMS_P1;PMS_P2;Temp;Humidity;BMP_temperature;BMP_pressure;BME280_temperature;BME280_humidity;BME280_pressure;Samples;Min_cycle;Max_cycle;Signal;HPM_P1;HPM_P2
2022/11/15 00:00:50;;;;;;;12.23;8.25;;;;;;;10.16;63.63;102084.75;5016594;28;20390;-78
2022/11/15 00:03:17;;;;;;;14.10;9.23;;;;;;;10.20;63.23;102083.50;5012431;28;20404;-79
2022/11/15 00:05:44;;;;;;;14.23;9.27;;;;;;;10.39;62.91;102080.13;5010889;28;20848;-78
2022/11/15 00:08:10;;;;;;;13.45;8.68;;;;;;;10.49;62.35;102082.78;5012003;28;20526;-78
2022/11/15 00:10:36;;;;;;;12.52;8.48;;;;;;;10.21;63.61;102082.53;5022330;28;20399;-77
2022/11/15 00:13:13;;;;;;;12.43;8.50;;;;;;;10.20;63.58;102080.03;5011683;28;20376;-77
2022/11/15 00:15:39;;;;;;;12.63;8.20;;;;;;;10.17;63.42;102074.97;5013937;28;20387;-77
2022/11/15 00:18:06;;;;;;;11.68;7.93;;;;;;;10.08;63.33;102068.66;5014079;28;20392;-78
2022/11/15 00:20:33;;;;;;;12.50;8.13;;;;;;;10.16;63.60;102076.78;5003474;28;20378;-78
2022/11/15 00:22:59;;;;;;;14.02;8.93;;;;;;;10.20;63.75;102067.59;5012619;28;20919;-78
2022/11/15 00:25:24;;;;;;;11.13;7.70;;;;;;;10.25;63.15;102067.22;5015288;28;20380;-77
2022/11/15 00:27:51;;;;;;;11.60;8.23;;;;;;;10.25;62.83;102075.16;5016741;28;20793;-77
2022/11/15 00:30:17;;;;;;;12.85;8.20;;;;;;;10.18;63.35;102072.19;5019322;28;20581;-78
2022/11/15 00:32:42;;;;;;;9.50;7.10;;;;;;;10.11;63.43;102068.41;5013836;28;20475;-77
2022/11/15 00:35:08;;;;;;;11.63;7.53;;;;;;;10.17;63.86;102067.84;5024180;28;20380;-77
2022/11/15 00:37:33;;;;;;;10.47;7.40;;;;;;;10.27;63.24;102071.38;5014544;28;20442;-78
2022/11/15 00:39:59;;;;;;;12.97;7.70;;;;;;;10.19;63.50;102068.59;5016586;28;20380;-78
2022/11/15 00:42:24;;;;;;;12.20;8.47;;;;;;;10.13;63.14;102056.69;5019905;28;20386;-75
2022/11/15 00:44:50;;;;;;;10.65;7.18;;;;;;;10.06;63.84;102057.38;5015751;28;20380;-77
2022/11/15 00:47:15;;;;;;;11.60;8.00;;;;;;;10.07;63.96;102064.34;5017179;28;20394;-77
2022/11/15 00:49:41;;;;;;;11.40;7.70;;;;;;;10.08;63.86;102061.56;5015858;28;20459;-77
2022/11/15 00:52:07;;;;;;;12.07;8.18;;;;;;;10.10;63.55;102061.41;5019649;28;20384;-77
2022/11/15 00:54:32;;;;;;;12.13;8.20;;;;;;;10.19;63.78;102054.47;5015858;28;20387;-77
2022/11/15 00:56:58;;;;;;;16.80;9.30;;;;;;;10.19;63.61;102052.69;5015816;28;20416;-77
2022/11/15 00:59:23;;;;;;;11.70;7.73;;;;;;;10.20;63.02;102057.00;5015419;28;20698;-77
2022/11/15 01:01:49;;;;;;;13.05;8.80;;;;;;;10.29;62.87;102050.06;5015290;28;20466;-78
2022/11/15 01:04:14;;;;;;;14.10;9.13;;;;;;;10.23;63.00;102048.78;5014648;28;20415;-78
2022/11/15 01:06:40;;;;;;;13.97;8.40;;;;;;;10.13;63.60;102047.91;5013779;28;20380;-78
2022/11/15 01:09:05;;;;;;;12.18;8.02;;;;;;;10.16;63.91;102052.13;5015608;28;20415;-77
2022/11/15 01:11:30;;;;;;;12.37;7.70;;;;;;;10.17;63.56;102044.00;5014749;28;20439;-78
2022/11/15 01:13:56;;;;;;;14.33;8.17;;;;;;;10.27;63.27;102044.88;5017550;28;20422;-77
2022/11/15 01:16:21;;;;;;;11.27;7.90;;;;;;;10.31;62.91;102037.53;5015692;28;20438;-78
2022/11/15 01:18:47;;;;;;;13.70;8.40;;;;;;;10.39;63.00;102036.84;5014100;28;20926;-78
2022/11/15 01:21:15;;;;;;;14.43;8.60;;;;;;;10.41;62.90;102045.53;5017762;28;20864;-77
2022/11/15 01:23:42;;;;;;;13.73;8.45;;;;;;;10.34;63.03;102037.28;5022830;28;20384;-78
2022/11/15 01:26:10;;;;;;;14.80;8.88;;;;;;;10.36;62.66;102037.97;5016160;28;20376;-78
2022/11/15 01:28:38;;;;;;;11.43;7.73;;;;;;;10.30;63.00;102028.72;5022942;28;20433;-78
2022/11/15 01:31:09;;;;;;;13.27;8.60;;;;;;;10.35;63.43;102032.81;5021942;28;20388;-81
2022/11/15 01:33:38;;;;;;;12.87;7.90;;;;;;;10.45;63.09;102031.03;5015091;28;20401;-78
2022/11/15 01:36:11;;;;;;;14.10;8.65;;;;;;;10.50;62.38;102028.81;5010564;28;20384;-78
2022/11/15 01:38:37;;;;;;;15.10;9.30;;;;;;;10.47;62.84;102023.75;5013389;28;20849;-77
2022/11/15 01:41:03;;;;;;;13.18;8.77;;;;;;;10.49;62.74;102027.94;5013080;28;20880;-77
2022/11/15 01:43:36;;;;;;;14.98;9.07;;;;;;;10.55;62.42;102025.72;5014566;28;20399;-78
2022/11/15 01:46:17;;;;;;;13.38;8.30;;;;;;;10.66;62.36;102009.66;5014335;28;20380;-77
2022/11/15 01:48:42;;;;;;;15.70;8.93;;;;;;;10.77;62.04;102017.53;5015771;28;20551;-77
2022/11/15 01:51:13;;;;;;;13.37;8.47;;;;;;;10.82;61.85;102012.63;5014121;28;20864;-77
2022/11/15 01:53:44;;;;;;;13.55;8.68;;;;;;;10.85;61.79;102009.69;5014759;28;20392;-78
2022/11/15 01:56:16;;;;;;;15.27;8.95;;;;;;;10.92;61.35;102007.31;5014704;28;20442;-78
2022/11/15 01:58:44;;;;;;;14.18;8.95;;;;;;;10.87;61.59;102004.25;5013434;28;20411;-77
2022/11/15 02:01:10;;;;;;;15.93;9.45;;;;;;;10.84;61.64;102005.38;5012946;28;20392;-78
2022/11/15 02:04:06;;;;;;;14.48;9.07;;;;;;;10.81;61.61;102013.59;5015344;28;20884;-76
2022/11/15 02:06:32;;;;;;;12.68;8.05;;;;;;;10.81;61.78;102010.94;5006384;28;20476;-77
2022/11/15 02:08:59;;;;;;;14.27;8.38;;;;;;;10.76;61.73;102001.75;5015296;28;20402;-77
2022/11/15 02:11:25;;;;;;;13.70;8.38;;;;;;;10.75;61.73;102000.91;5013222;28;20470;-77
2022/11/15 02:13:50;;;;;;;13.40;9.43;;;;;;;10.76;61.87;102002.56;5013993;28;20814;-77
2022/11/15 02:16:22;;;;;;;14.63;9.25;;;;;;;10.86;61.72;101999.94;5014833;28;20375;-78
2022/11/15 02:19:20;;;;;;;14.63;9.50;;;;;;;10.94;61.58;102001.88;5023635;28;20874;-77
2022/11/15 02:22:23;;;;;;;16.95;9.45;;;;;;;11.00;61.32;101999.50;4958545;28;20459;-77
2022/11/15 02:25:00;;;;;;;14.38;9.13;;;;;;;11.07;61.04;102005.06;5011932;28;20367;-77
2022/11/15 02:27:46;;;;;;;14.48;9.48;;;;;;;11.01;61.24;102003.81;5015948;28;20372;-77
2022/11/15 02:30:33;;;;;;;15.33;9.17;;;;;;;11.04;61.19;101997.41;5011840;28;20382;-79
2022/11/15 02:33:21;;;;;;;14.45;9.02;;;;;;;11.05;61.23;101999.06;5013202;28;20391;-78
2022/11/15 02:36:02;;;;;;;15.25;8.90;;;;;;;10.93;61.45;101989.56;5010839;28;20430;-77
2022/11/15 02:38:27;;;;;;;13.95;9.73;;;;;;;10.85;61.37;101985.81;5017302;28;20372;-77
2022/11/15 02:41:19;;;;;;;17.30;9.70;;;;;;;10.87;61.40;101990.97;5026631;28;20380;-76
2022/11/15 02:43:56;;;;;;;15.57;9.57;;;;;;;10.96;61.38;101984.81;5022399;28;20376;-77
2022/11/15 02:47:12;;;;;;;18.35;10.40;;;;;;;10.87;61.55;101977.72;5026333;28;20768;-77
2022/11/15 02:49:14;;;;;;;17.07;9.90;;;;;;;10.83;61.78;101971.03;5012827;28;20423;-76
2022/11/15 02:51:43;;;;;;;18.55;11.07;;;;;;;10.86;61.48;101968.94;5013817;28;20920;-78
2022/11/15 02:54:21;;;;;;;18.58;11.23;;;;;;;10.92;61.44;101978.13;5015739;28;20384;-78
2022/11/15 02:56:47;;;;;;;19.58;11.30;;;;;;;10.95;61.26;101971.69;5022304;28;20391;-77
2022/11/15 02:59:41;;;;;;;19.58;12.18;;;;;;;10.83;61.38;101971.84;5014575;28;21260;-78
2022/11/15 03:02:42;;;;;;;16.75;10.48;;;;;;;10.96;61.33;101971.56;5013289;28;20817;-78
2022/11/15 03:05:25;;;;;;;15.73;9.57;;;;;;;11.03;60.97;101970.00;4951782;28;20401;-78
2022/11/15 03:08:00;;;;;;;105.75;75.95;;;;;;;11.10;60.99;101976.44;5008044;28;20454;-77
2022/11/15 03:10:37;;;;;;;14.65;9.93;;;;;;;11.13;60.95;101963.84;5013386;28;20497;-78
2022/11/15 03:13:21;;;;;;;17.70;10.35;;;;;;;11.11;61.03;101974.63;5012685;28;20442;-78
2022/11/15 03:15:57;;;;;;;14.13;9.18;;;;;;;11.00;61.21;101961.50;5013233;28;20384;-77
2022/11/15 03:18:33;;;;;;;15.13;9.85;;;;;;;11.00;61.15;101970.31;5014369;28;20376;-78
2022/11/15 03:21:01;;;;;;;16.58;10.18;;;;;;;10.89;61.23;101965.16;5016544;28;20385;-78
2022/11/15 03:23:29;;;;;;;17.30;10.95;;;;;;;10.89;61.55;101970.44;5013446;28;20395;-77
2022/11/15 03:25:58;;;;;;;22.17;14.85;;;;;;;10.86;61.42;101965.44;5012569;28;20395;-78
2022/11/15 03:28:52;;;;;;;20.70;13.60;;;;;;;10.94;61.04;101957.59;5016725;28;20402;-77
2022/11/15 03:34:10;;;;;;;19.15;13.73;;;;;;;11.07;60.93;101955.50;5011592;28;20837;-77
2022/11/15 03:36:36;;;;;;;22.23;13.60;;;;;;;10.94;61.07;101952.28;5012234;28;20457;-78
2022/11/15 03:39:07;;;;;;;19.00;11.40;;;;;;;10.78;61.76;101952.03;5013091;28;20475;-78
2022/11/15 03:42:14;;;;;;;18.57;11.17;;;;;;;10.75;61.84;101944.34;5012462;28;20381;-78
2022/11/15 03:44:57;;;;;;;18.27;11.02;;;;;;;10.88;61.53;101940.44;5024240;28;20376;-77
2022/11/15 03:47:38;;;;;;;16.77;11.05;;;;;;;10.84;61.27;101932.91;5025849;28;20431;-77
2022/11/15 03:50:14;;;;;;;15.95;10.77;;;;;;;10.88;61.55;101939.63;5023698;28;20388;-77
2022/11/15 03:52:41;;;;;;;17.00;10.65;;;;;;;10.87;61.46;101940.56;5021076;28;20415;-77
2022/11/15 03:55:10;;;;;;;19.45;11.60;;;;;;;10.85;61.30;101940.72;5012436;28;20385;-78
2022/11/15 03:57:36;;;;;;;22.30;12.50;;;;;;;10.82;61.64;101942.81;5014768;28;20406;-75
2022/11/15 04:00:03;;;;;;;23.30;14.10;;;;;;;10.81;61.91;101939.34;5017392;28;20790;-77
2022/11/15 04:02:28;;;;;;;24.33;15.15;;;;;;;10.71;62.09;101936.69;5016780;28;20748;-77
2022/11/15 04:04:54;;;;;;;22.70;13.60;;;;;;;10.63;62.40;101947.16;5014735;28;20396;-76
2022/11/15 04:07:19;;;;;;;18.02;11.85;;;;;;;10.59;62.31;101931.66;5014299;28;20384;-77
2022/11/15 04:10:03;;;;;;;19.03;12.47;;;;;;;10.72;62.15;101934.88;5016922;28;20418;-77
2022/11/15 04:12:38;;;;;;;19.45;12.45;;;;;;;10.92;61.76;101933.03;5015094;28;20454;-78
2022/11/15 04:15:09;;;;;;;17.27;11.40;;;;;;;10.88;61.55;101921.88;5014846;28;20467;-76
2022/11/15 04:17:49;;;;;;;17.17;11.13;;;;;;;10.77;62.05;101927.34;5015180;28;20381;-76
2022/11/15 04:25:45;;;;;;;17.63;11.80;;;;;;;10.37;63.49;101916.88;5014904;28;20383;-78
2022/11/15 04:28:11;;;;;;;19.63;13.02;;;;;;;10.39;63.02;101914.91;5014800;28;20860;-76
2022/11/15 04:30:37;;;;;;;15.38;10.35;;;;;;;10.38;62.95;101914.09;5032220;28;20384;-77
2022/11/15 04:33:03;;;;;;;15.77;10.13;;;;;;;10.47;63.27;101912.41;5015681;28;20780;-77
2022/11/15 04:35:29;;;;;;;19.83;12.85;;;;;;;10.58;62.59;101904.31;5029950;28;20392;-77
2022/11/15 04:37:57;;;;;;;20.65;13.20;;;;;;;10.47;62.93;101904.47;5015254;28;20388;-78
2022/11/15 04:40:23;;;;;;;19.35;12.48;;;;;;;10.41;63.43;101900.56;5017842;28;20392;-76
2022/11/15 04:42:48;;;;;;;17.37;12.40;;;;;;;10.33;63.56;101897.75;5014532;28;20815;-77
2022/11/15 04:45:14;;;;;;;19.43;12.37;;;;;;;10.31;63.65;101897.06;5013161;28;20392;-77
2022/11/15 04:47:42;;;;;;;16.27;10.43;;;;;;;10.32;63.12;101893.44;5013541;28;20926;-76
2022/11/15 04:50:08;;;;;;;15.75;10.20;;;;;;;10.18;64.04;101894.66;5009079;28;20400;-76
2022/11/15 04:52:33;;;;;;;18.70;11.30;;;;;;;10.18;63.64;101891.19;5017434;28;20391;-77
2022/11/15 04:54:59;;;;;;;18.97;10.87;;;;;;;10.25;63.50;101897.59;5012567;28;20384;-76
2022/11/15 04:57:24;;;;;;;19.67;11.83;;;;;;;10.19;63.75;101896.34;5013061;28;20423;-76
2022/11/15 04:59:50;;;;;;;19.25;11.68;;;;;;;10.20;63.74;101900.66;5014064;28;20395;-77
2022/11/15 05:02:15;;;;;;;18.23;12.03;;;;;;;10.23;63.83;101894.25;5014297;28;20408;-77
2022/11/15 05:04:41;;;;;;;19.35;12.57;;;;;;;10.30;63.85;101892.72;5015285;28;20396;-76
2022/11/15 05:07:06;;;;;;;20.17;12.63;;;;;;;10.37;63.67;101893.88;5029015;28;20483;-77
2022/11/15 05:09:32;;;;;;;18.67;11.80;;;;;;;10.29;63.89;101883.91;5013161;28;20836;-78
2022/11/15 05:11:57;;;;;;;20.25;13.05;;;;;;;10.21;64.10;101885.59;5012952;28;20392;-76
2022/11/15 05:14:23;;;;;;;19.60;12.90;;;;;;;10.28;63.75;101884.06;5014566;28;20399;-77
2022/11/15 05:16:48;;;;;;;20.10;11.17;;;;;;;10.44;63.29;101879.09;5018624;28;20431;-77
2022/11/15 05:19:13;;;;;;;13.77;9.70;;;;;;;10.43;63.40;101877.41;5018586;28;20384;-76
2022/11/15 05:21:39;;;;;;;18.20;10.53;;;;;;;10.44;63.03;101880.88;5015494;28;20397;-77
2022/11/15 05:24:05;;;;;;;17.33;10.43;;;;;;;10.42;63.25;101880.19;5012656;28;20401;-76
2022/11/15 05:26:31;;;;;;;16.77;10.35;;;;;;;10.33;63.44;101884.50;5010661;28;20388;-76
2022/11/15 05:28:58;;;;;;;16.90;10.30;;;;;;;10.28;63.61;101897.31;5012435;28;20407;-76
2022/11/15 05:31:25;;;;;;;18.05;10.45;;;;;;;10.21;64.05;101885.59;4996012;28;20424;-77
2022/11/15 05:33:51;;;;;;;18.25;10.77;;;;;;;10.33;63.57;101884.50;5019526;28;20895;-78
2022/11/15 05:36:35;;;;;;;15.52;9.90;;;;;;;10.46;63.03;101879.78;5019191;28;20743;-78
2022/11/15 05:39:04;;;;;;;18.10;10.57;;;;;;;10.48;62.89;101875.16;5012038;28;20400;-76
2022/11/15 05:41:46;;;;;;;16.77;11.20;;;;;;;10.43;63.03;101879.22;5018629;28;20466;-77
2022/11/15 05:44:14;;;;;;;18.88;11.20;;;;;;;10.36;63.15;101888.72;5028969;28;20400;-77
2022/11/15 05:46:41;;;;;;;16.38;10.70;;;;;;;10.30;63.58;101887.44;5016597;28;20484;-77
2022/11/15 05:49:12;;;;;;;17.45;11.15;;;;;;;10.22;63.75;101889.91;5010604;28;20404;-78
2022/11/15 05:51:38;;;;;;;19.98;11.38;;;;;;;10.19;63.51;101892.84;5015472;28;20809;-78
2022/11/15 05:54:04;;;;;;;19.42;11.60;;;;;;;10.16;63.88;101893.97;5023162;28;20374;-77
2022/11/15 05:56:30;;;;;;;20.52;11.93;;;;;;;10.16;64.06;101888.66;5022400;28;20379;-77
2022/11/15 05:58:57;;;;;;;20.23;12.38;;;;;;;10.27;64.09;101893.00;5013292;28;20430;-77
2022/11/15 06:01:24;;;;;;;22.77;13.90;;;;;;;10.35;63.62;101889.69;5016101;28;20388;-76
2022/11/15 06:03:50;;;;;;;20.10;11.97;;;;;;;10.33;63.62;101889.81;5016928;28;20392;-77
2022/11/15 06:06:15;;;;;;;18.67;11.67;;;;;;;10.28;63.49;101892.88;5032313;28;20473;-77
2022/11/15 06:08:40;;;;;;;21.48;12.65;;;;;;;10.29;64.06;101883.91;5018681;28;20471;-79
2022/11/15 06:11:07;;;;;;;22.47;12.73;;;;;;;10.33;63.36;101888.03;5014064;28;20376;-77
2022/11/15 06:13:33;;;;;;;21.63;12.88;;;;;;;10.35;63.64;101887.03;5021534;28;20393;-77
2022/11/15 06:15:59;;;;;;;22.77;13.38;;;;;;;10.39;63.45;101877.81;5033447;28;20406;-79
2022/11/15 06:18:25;;;;;;;22.53;14.63;;;;;;;10.50;62.86;101883.00;5020377;28;20389;-76
2022/11/15 06:20:50;;;;;;;40.33;20.37;;;;;;;10.46;63.30;101877.13;5035429;28;20723;-80
2022/11/15 06:23:17;;;;;;;29.37;15.83;;;;;;;10.37;63.30;101880.63;5018124;28;20455;-78
2022/11/15 06:25:42;;;;;;;31.07;17.40;;;;;;;10.36;63.32;101884.25;5024938;28;20389;-77
2022/11/15 06:28:08;;;;;;;32.40;18.33;;;;;;;10.44;63.04;101879.09;5036162;28;20430;-77
2022/11/15 06:30:33;;;;;;;24.33;15.70;;;;;;;10.37;63.47;101887.72;5035691;28;20471;-78
2022/11/15 06:33:04;;;;;;;25.83;14.40;;;;;;;10.38;63.35;101882.28;5034816;28;20374;-76
2022/11/15 06:35:32;;;;;;;22.67;13.45;;;;;;;10.37;63.30;101888.56;5033614;28;20374;-77
2022/11/15 06:38:03;;;;;;;22.20;13.17;;;;;;;10.43;63.19;101889.81;5030809;28;20860;-77
2022/11/15 06:40:29;;;;;;;24.58;14.40;;;;;;;10.40;63.14;101885.63;5015652;28;20384;-77
2022/11/15 06:43:00;;;;;;;23.00;14.50;;;;;;;10.47;62.98;101884.09;4999749;28;20399;-77
2022/11/15 06:45:26;;;;;;;26.13;15.95;;;;;;;10.52;63.22;101889.81;5015449;28;20425;-78
2022/11/15 06:47:52;;;;;;;26.07;15.83;;;;;;;10.57;62.98;101886.75;5015053;28;20514;-77
2022/11/15 06:50:19;;;;;;;26.42;15.50;;;;;;;10.54;63.20;101887.03;5023408;28;20478;-78
2022/11/15 06:52:45;;;;;;;25.45;15.07;;;;;;;10.45;63.45;101885.22;5012575;28;20463;-78
2022/11/15 06:55:10;;;;;;;26.50;15.47;;;;;;;10.33;63.85;101890.66;5012010;28;20395;-77
2022/11/15 06:57:36;;;;;;;25.93;15.07;;;;;;;10.39;63.44;101896.34;5019444;28;20444;-77
2022/11/15 07:00:04;;;;;;;26.35;15.95;;;;;;;10.49;63.10;101884.78;5019316;28;20415;-78
2022/11/15 07:02:30;;;;;;;23.77;14.50;;;;;;;10.45;63.40;101883.41;5015108;28;20400;-79
2022/11/15 07:04:56;;;;;;;22.90;14.20;;;;;;;10.49;63.39;101882.13;5027676;28;20426;-77
2022/11/15 07:07:21;;;;;;;25.63;15.23;;;;;;;10.48;63.06;101880.47;5020440;28;20837;-78
2022/11/15 07:09:47;;;;;;;25.40;17.85;;;;;;;10.51;63.46;101887.28;5021359;28;20408;-78
2022/11/15 07:12:13;;;;;;;24.83;15.83;;;;;;;10.51;63.25;101879.34;5022226;28;20438;-77
2022/11/15 07:14:39;;;;;;;24.80;14.73;;;;;;;10.46;63.45;101885.09;5017076;28;20380;-77
2022/11/15 07:17:04;;;;;;;23.47;14.27;;;;;;;10.45;63.51;101864.84;5011842;28;20476;-77
2022/11/15 07:19:30;;;;;;;22.97;14.43;;;;;;;10.51;63.11;101866.09;5016479;28;20418;-77
2022/11/15 07:21:56;;;;;;;24.77;15.37;;;;;;;10.61;63.15;101858.13;5011912;28;20396;-76
2022/11/15 07:24:21;;;;;;;24.37;15.53;;;;;;;10.75;62.95;101873.59;5016279;28;20386;-78
2022/11/15 07:26:47;;;;;;;24.75;15.38;;;;;;;10.86;62.74;101868.13;5003526;28;20420;-77
2022/11/15 07:29:12;;;;;;;23.53;15.37;;;;;;;10.99;61.98;101866.97;4993160;28;20402;-77
2022/11/15 07:31:38;;;;;;;26.63;17.38;;;;;;;11.01;61.96;101868.50;4995804;28;20425;-76
2022/11/15 07:34:04;;;;;;;32.42;21.45;;;;;;;11.05;61.67;101859.25;5000344;28;20381;-79
2022/11/15 07:36:29;;;;;;;21.45;12.80;;;;;;;10.95;62.13;101861.13;5014313;28;20392;-79
2022/11/15 07:38:55;;;;;;;23.00;15.97;;;;;;;11.03;61.75;101860.41;5001796;28;20447;-78
2022/11/15 07:41:20;;;;;;;21.87;16.17;;;;;;;11.03;61.66;101857.75;4997798;28;20455;-77
2022/11/15 07:43:46;;;;;;;20.42;13.25;;;;;;;11.02;61.60;101854.25;4999254;28;20401;-78
2022/11/15 07:46:11;;;;;;;22.70;15.70;;;;;;;10.94;61.96;101854.13;5000540;28;20870;-77
2022/11/15 07:48:39;;;;;;;22.03;14.40;;;;;;;11.06;61.86;101852.97;5000326;28;20482;-77
2022/11/15 07:51:05;;;;;;;20.05;12.60;;;;;;;11.06;61.32;101860.13;5000330;28;20400;-77
2022/11/15 07:53:31;;;;;;;18.67;12.45;;;;;;;11.13;61.50;101847.09;4998583;28;20381;-77
2022/11/15 07:55:58;;;;;;;21.08;12.82;;;;;;;11.28;61.18;101837.66;5000241;28;20392;-78
2022/11/15 07:58:23;;;;;;;21.00;12.98;;;;;;;11.38;60.72;101841.13;5007479;28;20386;-78
2022/11/15 08:00:49;;;;;;;20.10;12.90;;;;;;;11.51;60.78;101850.56;4999207;28;20397;-79
2022/11/15 08:03:16;;;;;;;18.27;12.30;;;;;;;11.55;60.59;101847.44;4998682;28;20410;-78
2022/11/15 08:05:49;;;;;;;19.05;12.20;;;;;;;11.46;60.75;101845.69;5008568;28;21006;-76
2022/11/15 08:08:15;;;;;;;25.98;17.50;;;;;;;11.42;60.68;101839.00;4993652;28;20437;-77
2022/11/15 08:10:40;;;;;;;22.45;14.52;;;;;;;11.43;60.84;101838.00;5011749;28;20385;-78
2022/11/15 08:13:09;;;;;;;21.00;14.93;;;;;;;11.37;60.82;101835.97;5005942;28;20389;-77
2022/11/15 08:15:35;;;;;;;26.15;17.67;;;;;;;11.52;60.77;101841.59;5001522;28;20394;-79
2022/11/15 08:18:05;;;;;;;44.45;23.80;;;;;;;11.61;60.22;101840.69;5002438;28;20385;-79
2022/11/15 08:20:31;;;;;;;27.27;15.98;;;;;;;11.66;59.75;101833.13;5000211;28;20397;-79
2022/11/15 08:23:02;;;;;;;34.20;19.27;;;;;;;11.71;59.58;101838.84;5002873;28;20723;-78
2022/11/15 08:25:30;;;;;;;62.17;35.10;;;;;;;11.60;60.04;101841.72;5002162;28;20385;-78
2022/11/15 08:27:58;;;;;;;82.10;46.67;;;;;;;11.52;59.98;101837.13;4998046;28;20412;-77
2022/11/15 08:30:24;;;;;;;94.90;55.35;;;;;;;11.64;60.05;101830.63;4998515;28;20511;-77
2022/11/15 08:32:51;;;;;;;56.92;33.95;;;;;;;11.82;59.85;101825.31;5015598;28;20460;-78
2022/11/15 08:35:18;;;;;;;37.93;23.83;;;;;;;11.89;59.61;101822.09;5001861;28;20850;-77
2022/11/15 08:37:44;;;;;;;23.45;15.57;;;;;;;11.91;59.59;101810.34;5002660;28;20412;-78
2022/11/15 08:40:10;;;;;;;23.55;15.85;;;;;;;11.95;59.51;101818.84;5003390;28;20398;-77
2022/11/15 08:42:35;;;;;;;23.38;15.15;;;;;;;11.97;59.62;101819.53;5002380;28;20878;-78
2022/11/15 08:45:01;;;;;;;21.98;15.00;;;;;;;11.93;59.42;101826.97;5009552;28;20386;-79
2022/11/15 08:47:27;;;;;;;21.52;13.52;;;;;;;11.95;59.20;101824.16;4998781;28;20394;-76
2022/11/15 08:49:52;;;;;;;21.00;13.13;;;;;;;11.97;59.22;101819.53;4997925;28;20412;-76
2022/11/15 08:52:18;;;;;;;19.00;12.67;;;;;;;11.96;59.18;101815.22;4997312;28;20425;-78
2022/11/15 08:54:44;;;;;;;17.63;12.48;;;;;;;11.93;59.07;101826.97;4996554;28;20401;-78
2022/11/15 08:57:09;;;;;;;19.73;13.07;;;;;;;11.92;59.14;101814.69;4998010;28;20460;-78
2022/11/15 08:59:37;;;;;;;18.37;12.80;;;;;;;12.03;58.84;101818.94;5005201;28;20471;-80
2022/11/15 09:02:02;;;;;;;21.90;13.10;;;;;;;12.03;58.71;101819.75;4997146;28;20456;-78
2022/11/15 09:04:28;;;;;;;19.38;12.93;;;;;;;12.05;58.84;101809.81;5010069;28;20396;-79
2022/11/15 09:06:54;;;;;;;21.40;13.63;;;;;;;12.16;58.76;101811.38;4998972;28;20421;-79
2022/11/15 09:09:19;;;;;;;24.10;14.77;;;;;;;12.22;58.55;101805.44;5002049;28;20396;-80
2022/11/15 09:11:45;;;;;;;19.80;13.70;;;;;;;12.18;59.07;101805.94;5005092;28;20412;-77
2022/11/15 09:14:12;;;;;;;23.85;15.50;;;;;;;12.08;58.98;101810.47;5002050;28;20397;-78
2022/11/15 09:16:37;;;;;;;26.67;17.20;;;;;;;11.99;59.16;101806.91;4997965;28;20376;-78
2022/11/15 09:19:03;;;;;;;23.47;14.97;;;;;;;12.01;58.78;101805.78;4996822;28;20465;-77
2022/11/15 09:21:29;;;;;;;25.77;16.67;;;;;;;12.05;59.15;101796.50;4996770;28;20386;-78
2022/11/15 09:23:55;;;;;;;24.83;15.67;;;;;;;12.15;59.03;101785.78;4996341;28;20412;-78
2022/11/15 09:26:21;;;;;;;24.80;14.53;;;;;;;12.24;58.98;101797.31;4998538;28;20406;-77
2022/11/15 09:28:46;;;;;;;27.53;16.57;;;;;;;12.24;58.70;101789.34;5003927;28;20454;-78
2022/11/15 09:31:12;;;;;;;25.38;15.93;;;;;;;12.26;58.44;101782.03;5007459;28;20450;-79
2022/11/15 09:33:37;;;;;;;24.23;14.87;;;;;;;12.27;58.64;101786.38;5002544;28;20857;-77
2022/11/15 09:36:06;;;;;;;23.00;14.23;;;;;;;12.21;58.82;101774.56;5008588;28;20390;-79
2022/11/15 09:38:32;;;;;;;21.95;13.50;;;;;;;12.09;58.94;101770.47;4995051;28;20385;-78
2022/11/15 09:41:12;;;;;;;19.02;13.20;;;;;;;12.18;58.85;101766.88;4998628;28;20401;-79
2022/11/15 09:43:53;;;;;;;23.00;13.93;;;;;;;12.22;58.46;101773.53;5000921;28;20488;-78
2022/11/15 09:46:51;;;;;;;18.23;12.05;;;;;;;12.20;58.69;101758.75;5000615;28;20394;-79
2022/11/15 09:49:17;;;;;;;21.27;12.40;;;;;;;12.14;58.53;101757.56;4991073;28;20405;-79
2022/11/15 09:51:47;;;;;;;20.02;12.18;;;;;;;12.13;58.55;101758.53;5005574;28;20421;-78
2022/11/15 09:54:18;;;;;;;24.48;13.45;;;;;;;12.09;58.54;101753.69;5000420;28;20378;-79
2022/11/15 09:56:44;;;;;;;23.08;13.35;;;;;;;12.10;58.28;101745.56;5000712;28;20393;-80
2022/11/15 09:59:55;;;;;;;23.95;14.40;;;;;;;12.11;58.15;101743.75;4997183;28;20601;-79
2022/11/15 10:02:42;;;;;;;19.75;12.70;;;;;;;12.07;58.23;101740.56;4998258;28;20495;-78
2022/11/15 10:05:12;;;;;;;20.23;13.10;;;;;;;11.94;58.42;101735.63;5001362;28;20389;-79
2022/11/15 10:07:57;;;;;;;21.20;13.60;;;;;;;12.07;58.60;101734.41;5001549;28;20453;-78
2022/11/15 10:10:31;;;;;;;20.90;12.73;;;;;;;12.14;58.31;101732.81;4998255;28;20405;-78
2022/11/15 10:12:57;;;;;;;17.65;12.05;;;;;;;12.07;58.26;101719.28;4999922;28;20397;-78
2022/11/15 10:15:23;;;;;;;19.25;11.82;;;;;;;12.18;58.09;101727.00;4996780;28;20475;-79
2022/11/15 10:18:32;;;;;;;18.45;12.45;;;;;;;12.31;57.98;101720.44;4998679;28;20381;-78
2022/11/15 10:21:02;;;;;;;22.02;13.60;;;;;;;12.27;57.64;101717.25;4993244;28;20392;-79
2022/11/15 10:23:28;;;;;;;27.92;15.32;;;;;;;12.17;57.96;101705.88;4996718;28;20393;-78
2022/11/15 10:25:57;;;;;;;23.83;13.20;;;;;;;12.16;58.01;101698.94;4998032;28;20543;-78
2022/11/15 10:28:30;;;;;;;26.48;15.27;;;;;;;12.28;57.97;101707.47;4996589;28;20898;-78
2022/11/15 10:30:59;;;;;;;20.33;12.32;;;;;;;12.28;57.58;101704.78;5000574;28;20412;-79
2022/11/15 10:33:38;;;;;;;15.73;10.80;;;;;;;12.22;57.47;101708.91;4999922;28;20471;-78
2022/11/15 10:36:09;;;;;;;19.13;12.05;;;;;;;12.31;57.39;101699.19;4998580;28;20389;-78
2022/11/15 10:38:50;;;;;;;23.80;13.60;;;;;;;12.28;57.49;101689.69;4998175;28;20384;-78
2022/11/15 10:41:20;;;;;;;15.98;11.00;;;;;;;12.28;57.34;101689.69;5000290;28;20390;-78
2022/11/15 10:44:06;;;;;;;18.67;11.73;;;;;;;12.19;57.19;101682.63;5000987;28;20424;-77
2022/11/15 10:46:32;;;;;;;12.73;9.10;;;;;;;12.29;57.02;101678.06;4986947;28;20840;-79
2022/11/15 10:49:17;;;;;;;21.40;11.10;;;;;;;12.37;56.61;101677.25;4997247;28;20420;-80
2022/11/15 10:51:56;;;;;;;19.20;10.85;;;;;;;12.35;56.72;101676.59;4997123;28;20405;-78
2022/11/15 10:54:35;;;;;;;21.33;9.95;;;;;;;12.36;56.12;101665.81;4999657;28;20395;-79
2022/11/15 10:57:12;;;;;;;14.40;9.75;;;;;;;12.35;56.60;101671.28;5005265;28;20428;-79
2022/11/15 10:59:38;;;;;;;14.80;10.27;;;;;;;12.30;56.86;101661.13;4997001;28;20473;-79
2022/11/15 11:02:26;;;;;;;15.52;9.52;;;;;;;12.37;56.46;101666.63;4994118;28;20926;-77
2022/11/15 11:04:52;;;;;;;14.80;9.65;;;;;;;12.31;56.57;101656.63;5014276;28;20451;-80
2022/11/15 11:07:24;;;;;;;12.32;8.65;;;;;;;12.33;56.48;101663.44;4994501;28;20478;-79
2022/11/15 11:10:21;;;;;;;10.23;7.88;;;;;;;12.22;56.29;101655.75;4990934;28;20885;-78
2022/11/15 11:12:47;;;;;;;13.18;8.77;;;;;;;12.23;56.38;101654.78;4982366;28;20397;-79
2022/11/15 11:15:15;;;;;;;10.77;7.57;;;;;;;12.23;56.15;101650.28;4999975;28;20425;-79
2022/11/15 11:17:53;;;;;;;15.45;10.40;;;;;;;12.33;55.83;101655.47;5002256;28;20448;-79
2022/11/15 11:20:49;;;;;;;12.00;8.60;;;;;;;12.26;55.85;101653.63;5003468;28;20401;-78
2022/11/15 11:23:34;;;;;;;10.98;7.80;;;;;;;12.30;55.73;101653.16;5014695;28;20883;-78
2022/11/15 11:26:01;;;;;;;12.77;7.83;;;;;;;12.23;55.75;101647.63;5013779;28;20721;-80
2022/11/15 11:29:31;;;;;;;10.30;8.48;;;;;;;12.28;56.09;101646.31;5007390;28;20400;-79
2022/11/15 11:32:02;;;;;;;15.90;8.90;;;;;;;12.32;56.00;101634.38;4968075;29;20408;-77
2022/11/15 11:34:39;;;;;;;13.00;8.57;;;;;;;12.30;55.93;101631.88;5008037;28;20416;-77